SWR9TP LSGG-LSZH
Flight info
| Callsign | SWR9TP |
|---|---|
| Flight time | 0h 27m |
| Altitude | 18000 |
| Route | SOSAL N871 BERSU |
| Aircraft | A320/M-SDE2E3FGIRWXY/L |
Departure
| Time | 2026-05-05 17:47 |
|---|---|
| Airport | Geneva International Airport (LSGG) |
Arrival
| Time | 2026-05-05 18:15 |
|---|---|
| Airport | Zürich Airport (LSZH) |
| Time | Latitude | Longitude | Altitude | Speed | Heading |
|---|---|---|---|---|---|
| 2026-05-05 17:18 | 46.23059 | 6.10612 | 1403 ft | 0 kts | 133° |
| 2026-05-05 17:36 | 46.23069 | 6.10596 | 1414 ft | 2 kts | 133° |
| 2026-05-05 17:36 | 46.23081 | 6.10578 | 1386 ft | 2 kts | 131° |
| 2026-05-05 17:36 | 46.23088 | 6.10558 | 1387 ft | 2 kts | 96° |
| 2026-05-05 17:36 | 46.23086 | 6.10538 | 1385 ft | 0 kts | 39° |
| 2026-05-05 17:40 | 46.23097 | 6.10552 | 1388 ft | 8 kts | 45° |
| 2026-05-05 17:40 | 46.23138 | 6.10617 | 1385 ft | 9 kts | 47° |
| 2026-05-05 17:41 | 46.23185 | 6.10687 | 1385 ft | 10 kts | 45° |
| 2026-05-05 17:41 | 46.23246 | 6.10768 | 1386 ft | 12 kts | 30° |
| 2026-05-05 17:41 | 46.23328 | 6.10811 | 1383 ft | 13 kts | 31° |
| 2026-05-05 17:41 | 46.23396 | 6.10904 | 1379 ft | 14 kts | 46° |
| 2026-05-05 17:42 | 46.23459 | 6.10998 | 1377 ft | 12 kts | 46° |
| 2026-05-05 17:42 | 46.23519 | 6.11083 | 1376 ft | 12 kts | 45° |
| 2026-05-05 17:42 | 46.23580 | 6.11165 | 1377 ft | 11 kts | 22° |
| 2026-05-05 17:42 | 46.23646 | 6.11103 | 1373 ft | 11 kts | 315° |
| 2026-05-05 17:43 | 46.23710 | 6.11085 | 1379 ft | 15 kts | 39° |
| 2026-05-05 17:43 | 46.23778 | 6.11186 | 1379 ft | 13 kts | 45° |
| 2026-05-05 17:43 | 46.23862 | 6.11311 | 1376 ft | 19 kts | 46° |
| 2026-05-05 17:43 | 46.23950 | 6.11438 | 1375 ft | 18 kts | 45° |
| 2026-05-05 17:44 | 46.24042 | 6.11574 | 1372 ft | 19 kts | 45° |
| 2026-05-05 17:44 | 46.24140 | 6.11718 | 1368 ft | 21 kts | 45° |
| 2026-05-05 17:44 | 46.24243 | 6.11869 | 1367 ft | 20 kts | 44° |
| 2026-05-05 17:44 | 46.24338 | 6.12011 | 1366 ft | 19 kts | 45° |
| 2026-05-05 17:45 | 46.24426 | 6.12139 | 1369 ft | 18 kts | 44° |
| 2026-05-05 17:45 | 46.24512 | 6.12265 | 1367 ft | 17 kts | 45° |
| 2026-05-05 17:45 | 46.24593 | 6.12385 | 1365 ft | 16 kts | 46° |
| 2026-05-05 17:45 | 46.24687 | 6.12521 | 1360 ft | 25 kts | 45° |
| 2026-05-05 17:46 | 46.24828 | 6.12680 | 1357 ft | 27 kts | 18° |
| 2026-05-05 17:46 | 46.24997 | 6.12694 | 1357 ft | 24 kts | 302° |
| 2026-05-05 17:46 | 46.24929 | 6.12538 | 1357 ft | 20 kts | 226° |
| 2026-05-05 17:46 | 46.24717 | 6.12228 | 1367 ft | 76 kts | 225° |
| 2026-05-05 17:47 | 46.24199 | 6.11471 | 1374 ft | 133 kts | 225° |
| 2026-05-05 17:47 | 46.23454 | 6.10375 | 1572 ft | 159 kts | 224° |
| 2026-05-05 17:47 | 46.22687 | 6.09241 | 2200 ft | 159 kts | 225° |
| 2026-05-05 17:47 | 46.22172 | 6.08483 | 2629 ft | 159 kts | 224° |
| 2026-05-05 17:48 | 46.21400 | 6.07335 | 3316 ft | 159 kts | 231° |
| 2026-05-05 17:48 | 46.21215 | 6.05275 | 4061 ft | 168 kts | 287° |
| 2026-05-05 17:48 | 46.21905 | 6.03891 | 4675 ft | 176 kts | 317° |
| 2026-05-05 17:48 | 46.22677 | 6.03315 | 4874 ft | 197 kts | 344° |
| 2026-05-05 17:49 | 46.24096 | 6.03622 | 5133 ft | 223 kts | 30° |
| 2026-05-05 17:49 | 46.25301 | 6.05145 | 5394 ft | 243 kts | 57° |
| 2026-05-05 17:49 | 46.26178 | 6.07340 | 5670 ft | 267 kts | 63° |
| 2026-05-05 17:49 | 46.27084 | 6.09807 | 6096 ft | 288 kts | 64° |
| 2026-05-05 17:50 | 46.28029 | 6.12422 | 6803 ft | 296 kts | 64° |
| 2026-05-05 17:50 | 46.28994 | 6.15079 | 7648 ft | 300 kts | 64° |
| 2026-05-05 17:50 | 46.29970 | 6.17752 | 8520 ft | 302 kts | 64° |
| 2026-05-05 17:50 | 46.30975 | 6.20480 | 9268 ft | 310 kts | 64° |
| 2026-05-05 17:51 | 46.32007 | 6.23257 | 10024 ft | 315 kts | 64° |
| 2026-05-05 17:51 | 46.33059 | 6.26081 | 10626 ft | 327 kts | 63° |
| 2026-05-05 17:51 | 46.34180 | 6.29078 | 10912 ft | 348 kts | 63° |
| 2026-05-05 17:51 | 46.35368 | 6.32248 | 11255 ft | 366 kts | 63° |
| 2026-05-05 17:52 | 46.36584 | 6.35523 | 11923 ft | 371 kts | 64° |
| 2026-05-05 17:52 | 46.37767 | 6.38791 | 12697 ft | 372 kts | 64° |
| 2026-05-05 17:52 | 46.38953 | 6.42137 | 13447 ft | 376 kts | 64° |
| 2026-05-05 17:52 | 46.40176 | 6.45533 | 14023 ft | 382 kts | 64° |
| 2026-05-05 17:53 | 46.41430 | 6.48949 | 14653 ft | 385 kts | 63° |
| 2026-05-05 17:53 | 46.42704 | 6.52394 | 15287 ft | 389 kts | 63° |
| 2026-05-05 17:53 | 46.43987 | 6.55869 | 15903 ft | 392 kts | 63° |
| 2026-05-05 17:53 | 46.45274 | 6.59374 | 16522 ft | 396 kts | 63° |
| 2026-05-05 17:54 | 46.46572 | 6.62925 | 17138 ft | 399 kts | 63° |
| 2026-05-05 17:54 | 46.47874 | 6.66496 | 17708 ft | 403 kts | 63° |
| 2026-05-05 17:54 | 46.49189 | 6.70107 | 17877 ft | 405 kts | 63° |
| 2026-05-05 17:54 | 46.50513 | 6.73766 | 17919 ft | 413 kts | 64° |
| 2026-05-05 17:55 | 46.51849 | 6.77467 | 17917 ft | 414 kts | 64° |
| 2026-05-05 17:55 | 46.53184 | 6.81171 | 17922 ft | 414 kts | 64° |
| 2026-05-05 17:55 | 46.54524 | 6.84883 | 17922 ft | 414 kts | 64° |
| 2026-05-05 17:55 | 46.55929 | 6.88479 | 17902 ft | 415 kts | 57° |
| 2026-05-05 17:56 | 46.57688 | 6.91817 | 17921 ft | 416 kts | 51° |
| 2026-05-05 17:56 | 46.59518 | 6.95091 | 17913 ft | 416 kts | 51° |
| 2026-05-05 17:56 | 46.61338 | 6.98358 | 17913 ft | 416 kts | 52° |
| 2026-05-05 17:56 | 46.63158 | 7.01642 | 17914 ft | 417 kts | 52° |
| 2026-05-05 17:57 | 46.64974 | 7.04928 | 17914 ft | 417 kts | 52° |
| 2026-05-05 17:57 | 46.66793 | 7.08217 | 17915 ft | 417 kts | 52° |
| 2026-05-05 17:57 | 46.68616 | 7.11511 | 17917 ft | 417 kts | 52° |
| 2026-05-05 17:57 | 46.70436 | 7.14805 | 17919 ft | 417 kts | 52° |
| 2026-05-05 17:58 | 46.72256 | 7.18102 | 17921 ft | 417 kts | 52° |
| 2026-05-05 17:58 | 46.74074 | 7.21395 | 17925 ft | 417 kts | 52° |
| 2026-05-05 17:58 | 46.75887 | 7.24688 | 17930 ft | 416 kts | 51° |
| 2026-05-05 17:58 | 46.77674 | 7.27941 | 17926 ft | 416 kts | 51° |
| 2026-05-05 17:59 | 46.79483 | 7.31245 | 17921 ft | 415 kts | 52° |
| 2026-05-05 17:59 | 46.81286 | 7.34539 | 17897 ft | 415 kts | 52° |
| 2026-05-05 17:59 | 46.83092 | 7.37836 | 17896 ft | 415 kts | 52° |
| 2026-05-05 17:59 | 46.84897 | 7.41129 | 17895 ft | 415 kts | 52° |
| 2026-05-05 18:00 | 46.86701 | 7.44423 | 17894 ft | 415 kts | 52° |
| 2026-05-05 18:00 | 46.88499 | 7.47721 | 17895 ft | 414 kts | 52° |
| 2026-05-05 18:00 | 46.90292 | 7.51020 | 17917 ft | 414 kts | 52° |
| 2026-05-05 18:00 | 46.92085 | 7.54325 | 17918 ft | 414 kts | 52° |
| 2026-05-05 18:01 | 46.93878 | 7.57637 | 17925 ft | 414 kts | 52° |
| 2026-05-05 18:01 | 46.95646 | 7.60905 | 17922 ft | 414 kts | 52° |
| 2026-05-05 18:01 | 46.97461 | 7.64259 | 17912 ft | 414 kts | 52° |
| 2026-05-05 18:01 | 46.99217 | 7.67500 | 17735 ft | 407 kts | 52° |
| 2026-05-05 18:02 | 47.00964 | 7.70720 | 17332 ft | 400 kts | 52° |
| 2026-05-05 18:02 | 47.02684 | 7.73893 | 16931 ft | 395 kts | 52° |
| 2026-05-05 18:02 | 47.04380 | 7.77034 | 16539 ft | 390 kts | 52° |
| 2026-05-05 18:02 | 47.06047 | 7.80137 | 16150 ft | 385 kts | 52° |
| 2026-05-05 18:03 | 47.07695 | 7.83211 | 15770 ft | 381 kts | 52° |
| 2026-05-05 18:03 | 47.09323 | 7.86272 | 15394 ft | 378 kts | 52° |
| 2026-05-05 18:03 | 47.10935 | 7.89305 | 15023 ft | 376 kts | 52° |
| 2026-05-05 18:03 | 47.12552 | 7.92314 | 14651 ft | 375 kts | 52° |
| 2026-05-05 18:04 | 47.13979 | 7.95507 | 14284 ft | 373 kts | 63° |
| 2026-05-05 18:04 | 47.15106 | 7.98919 | 13929 ft | 371 kts | 66° |
| 2026-05-05 18:04 | 47.16204 | 8.02345 | 13558 ft | 370 kts | 66° |
| 2026-05-05 18:04 | 47.17360 | 8.05653 | 13157 ft | 368 kts | 56° |
| 2026-05-05 18:05 | 47.19126 | 8.08333 | 12766 ft | 364 kts | 33° |
| 2026-05-05 18:05 | 47.21381 | 8.09924 | 12381 ft | 359 kts | 15° |
| 2026-05-05 18:05 | 47.23765 | 8.11000 | 11992 ft | 357 kts | 14° |
| 2026-05-05 18:05 | 47.26148 | 8.12027 | 11612 ft | 355 kts | 13° |
| 2026-05-05 18:06 | 47.28503 | 8.13043 | 11229 ft | 349 kts | 13° |
| 2026-05-05 18:06 | 47.30024 | 8.13706 | 10976 ft | 338 kts | 14° |
| 2026-05-05 18:06 | 47.32958 | 8.14996 | 10485 ft | 321 kts | 13° |
| 2026-05-05 18:06 | 47.35079 | 8.15950 | 10125 ft | 317 kts | 14° |
| 2026-05-05 18:07 | 47.37182 | 8.16892 | 9759 ft | 316 kts | 14° |
| 2026-05-05 18:07 | 47.39275 | 8.17822 | 9364 ft | 315 kts | 13° |
| 2026-05-05 18:07 | 47.41357 | 8.18759 | 8960 ft | 310 kts | 13° |
| 2026-05-05 18:07 | 47.43410 | 8.19692 | 8570 ft | 309 kts | 14° |
| 2026-05-05 18:08 | 47.45457 | 8.20616 | 8187 ft | 306 kts | 13° |
| 2026-05-05 18:08 | 47.47478 | 8.21530 | 7806 ft | 304 kts | 13° |
| 2026-05-05 18:08 | 47.49501 | 8.22450 | 7435 ft | 302 kts | 14° |
| 2026-05-05 18:08 | 47.51505 | 8.23350 | 7067 ft | 300 kts | 13° |
| 2026-05-05 18:09 | 47.53494 | 8.24243 | 6701 ft | 297 kts | 13° |
| 2026-05-05 18:09 | 47.55460 | 8.25130 | 6408 ft | 292 kts | 14° |
| 2026-05-05 18:09 | 47.57388 | 8.25998 | 6105 ft | 288 kts | 14° |
| 2026-05-05 18:09 | 47.59255 | 8.26899 | 5786 ft | 276 kts | 22° |
| 2026-05-05 18:10 | 47.60741 | 8.28587 | 5471 ft | 266 kts | 51° |
| 2026-05-05 18:10 | 47.61520 | 8.30925 | 5250 ft | 251 kts | 79° |
| 2026-05-05 18:10 | 47.61590 | 8.33459 | 5080 ft | 243 kts | 103° |
| 2026-05-05 18:10 | 47.61014 | 8.35751 | 4854 ft | 233 kts | 127° |
| 2026-05-05 18:11 | 47.59961 | 8.37498 | 4590 ft | 224 kts | 142° |
| 2026-05-05 18:11 | 47.58830 | 8.39047 | 4307 ft | 219 kts | 142° |
| 2026-05-05 18:11 | 47.57722 | 8.40570 | 4019 ft | 214 kts | 142° |
| 2026-05-05 18:11 | 47.56656 | 8.42037 | 3713 ft | 204 kts | 142° |
| 2026-05-05 18:12 | 47.55631 | 8.43443 | 3452 ft | 199 kts | 142° |
| 2026-05-05 18:12 | 47.54652 | 8.44787 | 3213 ft | 181 kts | 141° |
| 2026-05-05 18:12 | 47.53773 | 8.45993 | 2940 ft | 165 kts | 140° |
| 2026-05-05 18:12 | 47.52963 | 8.47106 | 2723 ft | 154 kts | 141° |
| 2026-05-05 18:13 | 47.52188 | 8.48162 | 2539 ft | 149 kts | 141° |
| 2026-05-05 18:13 | 47.51440 | 8.49182 | 2337 ft | 146 kts | 140° |
| 2026-05-05 18:13 | 47.50700 | 8.50195 | 2120 ft | 144 kts | 140° |
| 2026-05-05 18:13 | 47.49964 | 8.51193 | 1939 ft | 143 kts | 140° |
| 2026-05-05 18:14 | 47.49243 | 8.52190 | 1748 ft | 141 kts | 140° |
| 2026-05-05 18:14 | 47.48528 | 8.53178 | 1509 ft | 139 kts | 139° |
| 2026-05-05 18:14 | 47.47833 | 8.54123 | 1406 ft | 126 kts | 139° |
| 2026-05-05 18:14 | 47.47281 | 8.54867 | 1387 ft | 91 kts | 137° |
| 2026-05-05 18:15 | 47.46865 | 8.55436 | 1394 ft | 64 kts | 137° |
| 2026-05-05 18:15 | 47.46551 | 8.55696 | 1405 ft | 33 kts | 168° |
| 2026-05-05 18:15 | 47.46442 | 8.55729 | 1400 ft | 0 kts | 166° |
| 2026-05-05 18:16 | 47.46402 | 8.55748 | 1402 ft | 14 kts | 160° |
| 2026-05-05 18:16 | 47.46299 | 8.55872 | 1408 ft | 26 kts | 138° |
| 2026-05-05 18:17 | 47.46169 | 8.56005 | 1406 ft | 19 kts | 184° |
| 2026-05-05 18:17 | 47.46038 | 8.55980 | 1407 ft | 15 kts | 184° |
| 2026-05-05 18:17 | 47.45922 | 8.55946 | 1410 ft | 14 kts | 201° |
| 2026-05-05 18:17 | 47.45832 | 8.55897 | 1414 ft | 13 kts | 199° |
| 2026-05-05 18:18 | 47.45736 | 8.55870 | 1409 ft | 16 kts | 185° |
| 2026-05-05 18:18 | 47.45628 | 8.55853 | 1409 ft | 16 kts | 186° |
| 2026-05-05 18:18 | 47.45518 | 8.55822 | 1412 ft | 13 kts | 213° |
| 2026-05-05 18:18 | 47.45510 | 8.55727 | 1409 ft | 9 kts | 278° |
| 2026-05-05 18:19 | 47.45475 | 8.55697 | 1411 ft | 7 kts | 178° |
| 2026-05-05 18:19 | 47.45438 | 8.55692 | 1407 ft | 3 kts | 187° |
| 2026-05-05 18:19 | 47.45434 | 8.55691 | 1407 ft | 0 kts | 186° |